Perryton, Texas
Current Conditions -  °F | °C
As of 2:55 PM on Thursday 27 Nov 2014 (Local Time) from KPYX Reporting Station
Clear Clear  
Wind Chill: 58°   Ceiling: Unl
Heat Index: 58°   Visibility: 10mi
Dew Point: 29°   Wind: 22mph
Humidity: 32%   Direction: 200°SSW
Pressure: 30.22"   Gusts: 25mph
Location:  36.4°N, 100.8°W
Report Text: KPYX 272055Z AUTO 20019G22KT 10SM CLR 15/M02 A3022 RMK AO2 T01471018
Loading
Personal Weather Stations






























Interactive Weather Map New forecast layout! Learn more

10-Day Weather Forecast

Advertisements
Track Severe Weather on mobile